Maple Grove, Washington
Current Conditions -  °F | °C
As of 4:36 PM on Thursday 27 Nov 2014 (Local Time) from KCLM Reporting Station
Light Rain Light Rain  
Wind Chill: 54°   Ceiling: 6000
Heat Index: 54°   Visibility: 2.5mi
Dew Point: 52°   Wind: 3mph
Humidity: 93%   Direction: 20°NNE
Pressure: 29.69"   Gusts: NA
Location:  48.0203°N, 123.478°W
Report Text: KCLM 280036Z AUTO 02003KT 2 1/2SM -RA BR BKN060 OVC095 12/11 A2969 RMK AO2 RAB05E16B22 P0000 T01220111 $
Loading
Personal Weather Stations






























Interactive Weather Map New forecast layout! Learn more

10-Day Weather Forecast

Advertisements
Track Severe Weather on mobile